Time,TemperatureF,DewpointF,PressureIn,WindDirection,WindDirectionDegrees,WindSpeedMPH,WindSpeedGustMPH,Humidity,HourlyPrecipIn,Conditions,Clouds,dailyrainin,SoftwareType,DateUTC
2013-03-13 11:37:00,30.7,9.2,30.28,NW,315,6.9,20.7,40,0.01,OVC,FEW,0.01,WeatherDisplay:10.37,2013-03-13 16:37:00,
2013-03-13 11:41:00,30.7,9.8,30.29,NW,315,5.4,10.4,41,0.01,OVC,FEW,0.01,WeatherDisplay:10.37,2013-03-13 16:41:00,
2013-03-13 14:52:00,35.2,6.1,30.28,NW,315,6.9,13.8,29,0.00,OVC,FEW,0.01,WeatherDisplay:10.37,2013-03-13 19:52:00,
2013-03-13 15:55:00,36.7,9.5,30.29,NW,315,4.5,13.8,32,0.00,OVC,FEW,0.01,WeatherDisplay:10.37,2013-03-13 20:55:00,
2013-03-13 16:01:00,35.6,9.9,30.29,NW,315,6.0,13.8,34,0.00,OVC,FEW,0.01,WeatherDisplay:10.37,2013-03-13 21:01:00,
2013-03-13 16:07:00,36.3,9.2,30.30,North,0,3.8,9.2,32,0.00,OVC,FEW,0.01,WeatherDisplay:10.37,2013-03-13 21:07:00,
2013-03-13 16:10:00,36.3,11.2,30.30,NE,45,5.4,9.8,35,0.00,OVC,FEW,0.01,WeatherDisplay:10.37,2013-03-13 21:10:00,
2013-03-13 16:15:00,37.0,11.2,30.30,NW,315,3.8,13.0,34,0.00,OVC,FEW,0.01,WeatherDisplay:10.37,2013-03-13 21:15:00,
2013-03-13 16:21:00,36.5,10.7,30.30,West,270,4.5,8.1,34,0.00,OVC,FEW,0.01,WeatherDisplay:10.37,2013-03-13 21:21:00,
2013-03-13 16:27:00,36.0,10.3,30.30,West,270,3.1,10.4,34,0.00,OVC,FEW,0.01,WeatherDisplay:10.37,2013-03-13 21:27:00,
2013-03-13 16:32:00,35.2,9.6,30.30,NW,315,5.4,11.5,34,0.00,OVC,FEW,0.01,WeatherDisplay:10.37,2013-03-13 21:32:00,
2013-03-13 16:38:00,36.0,9.6,30.30,NW,315,8.3,11.5,33,0.00,OVC,FEW,0.01,WeatherDisplay:10.37,2013-03-13 21:38:00,
2013-03-13 16:43:00,35.6,9.9,30.30,West,270,3.1,10.4,34,0.00,OVC,FEW,0.01,WeatherDisplay:10.37,2013-03-13 21:43:00,
2013-03-13 16:49:00,36.3,9.9,30.30,West,270,3.1,9.2,33,0.00,OVC,FEW,0.01,WeatherDisplay:10.37,2013-03-13 21:49:00,
2013-03-13 16:55:00,35.6,7.9,30.30,NW,315,7.6,12.1,31,0.00,OVC,FEW,0.01,WeatherDisplay:10.37,2013-03-13 21:55:00,
2013-03-13 17:00:00,35.2,9.6,30.30,NW,315,3.8,8.1,34,0.00,OVC,FEW,0.01,WeatherDisplay:10.37,2013-03-13 22:00:00,
2013-03-13 17:07:00,35.1,7.4,30.29,North,0,4.5,16.1,31,0.00,OVC,FEW,0.01,WeatherDisplay:10.37,2013-03-13 22:07:00,
2013-03-13 17:12:00,34.9,6.5,30.29,NW,315,6.0,10.4,30,0.00,OVC,FEW,0.01,WeatherDisplay:10.37,2013-03-13 22:12:00,
2013-03-13 17:18:00,34.7,7.8,30.30,NW,315,4.5,9.2,32,0.00,OVC,FEW,0.01,WeatherDisplay:10.37,2013-03-13 22:18:00,
2013-03-13 17:23:00,34.9,8.6,30.29,NW,315,3.8,10.7,33,0.00,OVC,FEW,0.01,WeatherDisplay:10.37,2013-03-13 22:23:00,
2013-03-13 17:29:00,34.5,8.3,30.30,NW,315,7.6,12.7,33,0.00,OVC,FEW,0.01,WeatherDisplay:10.37,2013-03-13 22:29:00,
2013-03-13 17:35:00,34.3,8.8,30.30,West,270,3.1,6.9,34,0.00,OVC,FEW,0.01,WeatherDisplay:10.37,2013-03-13 22:35:00,
2013-03-13 17:40:00,34.2,8.0,30.30,North,0,6.0,13.8,33,0.00,OVC,FEW,0.01,WeatherDisplay:10.37,2013-03-13 22:40:00,
2013-03-13 17:47:00,34.0,8.5,30.30,NW,315,6.9,11.5,34,0.00,OVC,FEW,0.01,WeatherDisplay:10.37,2013-03-13 22:47:00,
2013-03-13 17:52:00,33.8,9.6,30.30,NW,315,6.0,8.1,36,0.00,OVC,FEW,0.01,WeatherDisplay:10.37,2013-03-13 22:52:00,
2013-03-13 17:58:00,33.6,8.8,30.30,NW,315,5.4,10.4,35,0.00,OVC,FEW,0.01,WeatherDisplay:10.37,2013-03-13 22:58:00,
2013-03-13 18:03:00,33.3,8.5,30.30,NW,315,6.0,10.4,35,0.00,OVC,FEW,0.01,WeatherDisplay:10.37,2013-03-13 23:03:00,
2013-03-13 18:09:00,33.1,9.6,30.30,NW,315,5.4,10.4,37,0.00,OVC,FEW,0.01,WeatherDisplay:10.37,2013-03-13 23:09:00,
2013-03-13 18:15:00,33.1,9.6,30.30,NW,315,5.4,9.2,37,0.00,OVC,FEW,0.01,WeatherDisplay:10.37,2013-03-13 23:15:00,
2013-03-13 18:20:00,32.9,8.8,30.30,NW,315,4.5,8.3,36,0.00,OVC,FEW,0.01,WeatherDisplay:10.37,2013-03-13 23:20:00,
2013-03-13 18:26:00,32.7,9.3,30.30,NW,315,3.8,8.1,37,0.00,OVC,FEW,0.01,WeatherDisplay:10.37,2013-03-13 23:26:00,
2013-03-13 18:31:00,32.7,8.7,30.30,NW,315,2.2,8.1,36,0.00,OVC,FEW,0.01,WeatherDisplay:10.37,2013-03-13 23:31:00,
2013-03-13 18:37:00,32.7,8.7,30.30,West,270,3.8,6.9,36,0.00,OVC,FEW,0.01,WeatherDisplay:10.37,2013-03-13 23:37:00,
2013-03-13 18:43:00,32.5,9.7,30.30,North,0,3.8,8.1,38,0.00,OVC,FEW,0.01,WeatherDisplay:10.37,2013-03-13 23:43:00,
2013-03-13 18:48:00,32.2,10.0,30.30,West,270,1.6,6.9,39,0.00,OVC,FEW,0.01,WeatherDisplay:10.37,2013-03-13 23:48:00,
2013-03-13 18:54:00,32.0,9.8,30.30,NW,315,2.2,6.9,39,0.00,OVC,FEW,0.01,WeatherDisplay:10.37,2013-03-13 23:54:00,
2013-03-13 18:59:00,31.6,9.5,30.30,West,270,1.6,5.8,39,0.00,OVC,FEW,0.01,WeatherDisplay:10.37,2013-03-13 23:59:00,
2013-03-13 19:05:00,31.1,9.6,30.30,NW,315,1.6,5.8,40,0.00,OVC,FEW,0.01,WeatherDisplay:10.37,2013-03-14 00:05:00,
2013-03-13 19:11:00,30.9,9.9,30.30,West,270,3.1,4.6,41,0.00,OVC,FEW,0.01,WeatherDisplay:10.37,2013-03-14 00:11:00,
2013-03-13 19:16:00,30.6,10.7,30.30,WSW,248,0.7,3.5,43,0.00,OVC,FEW,0.01,WeatherDisplay:10.37,2013-03-14 00:16:00,
2013-03-13 19:22:00,30.4,11.0,30.30,NW,315,0.0,2.3,44,0.00,OVC,FEW,0.01,WeatherDisplay:10.37,2013-03-14 00:22:00,
2013-03-13 19:27:00,30.2,10.9,30.30,SW,225,2.2,4.6,44,0.00,OVC,FEW,0.01,WeatherDisplay:10.37,2013-03-14 00:27:00,
2013-03-13 19:33:00,30.0,11.2,30.30,West,270,0.0,4.6,45,0.00,OVC,FEW,0.01,WeatherDisplay:10.37,2013-03-14 00:33:00,
2013-03-13 19:39:00,29.8,11.5,30.30,West,270,1.6,3.5,46,0.00,OVC,FEW,0.01,WeatherDisplay:10.37,2013-03-14 00:39:00,
2013-03-13 19:44:00,29.8,11.5,30.30,SW,225,2.2,5.8,46,0.00,OVC,FEW,0.01,WeatherDisplay:10.37,2013-03-14 00:44:00,
2013-03-13 19:50:00,29.5,11.2,30.30,West,270,0.0,1.6,46,0.00,OVC,FEW,0.01,WeatherDisplay:10.37,2013-03-14 00:50:00,
2013-03-13 19:55:00,29.5,11.7,30.30,SW,225,0.0,2.3,47,0.00,OVC,FEW,0.01,WeatherDisplay:10.37,2013-03-14 00:55:00,
2013-03-13 20:01:00,29.1,11.8,30.30,NW,315,0.0,1.2,48,0.00,OVC,FEW,0.01,WeatherDisplay:10.37,2013-03-14 01:01:00,
2013-03-13 20:07:00,28.9,12.1,30.30,NW,315,1.6,3.1,49,0.00,OVC,FEW,0.01,WeatherDisplay:10.37,2013-03-14 01:07:00,
2013-03-13 20:12:00,28.9,12.6,30.31,West,270,0.7,3.1,50,0.00,OVC,FEW,0.01,WeatherDisplay:10.37,2013-03-14 01:12:00,
2013-03-13 20:18:00,28.8,12.4,30.31,NW,315,0.0,2.2,50,0.00,OVC,FEW,0.01,WeatherDisplay:10.37,2013-03-14 01:18:00,
2013-03-13 20:23:00,28.8,12.9,30.30,NW,315,0.7,2.3,51,0.00,OVC,FEW,0.01,WeatherDisplay:10.37,2013-03-14 01:23:00,
2013-03-13 20:29:00,28.6,13.6,30.30,SW,225,2.2,3.8,53,0.00,OVC,FEW,0.01,WeatherDisplay:10.37,2013-03-14 01:29:00,
2013-03-13 20:35:00,28.6,13.6,30.30,NW,315,1.6,3.5,53,0.00,OVC,FEW,0.01,WeatherDisplay:10.37,2013-03-14 01:35:00,
2013-03-13 20:40:00,28.6,13.6,30.29,West,270,0.7,2.3,53,0.00,OVC,FEW,0.01,WeatherDisplay:10.37,2013-03-14 01:40:00,
2013-03-13 20:47:00,28.2,13.3,30.30,West,270,0.0,1.2,53,0.00,OVC,FEW,0.01,WeatherDisplay:10.37,2013-03-14 01:47:00,
2013-03-13 20:52:00,27.9,13.8,30.30,NW,315,0.0,2.3,55,0.00,OVC,FEW,0.01,WeatherDisplay:10.37,2013-03-14 01:52:00,
2013-03-13 20:58:00,27.9,13.8,30.29,West,270,0.0,1.6,55,0.00,OVC,FEW,0.01,WeatherDisplay:10.37,2013-03-14 01:58:00,
2013-03-13 21:03:00,27.9,14.2,30.29,West,270,0.7,2.3,56,0.00,OVC,FEW,0.01,WeatherDisplay:10.37,2013-03-14 02:03:00,
2013-03-13 21:09:00,27.7,14.4,30.29,SW,225,0.0,2.3,57,0.00,OVC,FEW,0.01,WeatherDisplay:10.37,2013-03-14 02:09:00,
2013-03-13 21:15:00,27.3,14.1,30.30,NW,315,0.0,0.0,57,0.00,OVC,FEW,0.01,WeatherDisplay:10.37,2013-03-14 02:15:00,
2013-03-13 21:20:00,27.3,14.5,30.29,NW,315,0.0,0.0,58,0.00,OVC,FEW,0.01,WeatherDisplay:10.37,2013-03-14 02:20:00,
2013-03-13 21:26:00,27.1,14.7,30.30,NW,315,0.0,0.0,59,0.00,OVC,FEW,0.01,WeatherDisplay:10.37,2013-03-14 02:26:00,
2013-03-13 21:31:00,27.0,14.5,30.30,NW,315,0.0,0.0,59,0.00,OVC,FEW,0.01,WeatherDisplay:10.37,2013-03-14 02:31:00,
2013-03-13 21:37:00,27.0,14.9,30.30,North,0,0.0,0.0,60,0.00,OVC,FEW,0.01,WeatherDisplay:10.37,2013-03-14 02:37:00,
2013-03-13 21:43:00,26.8,15.5,30.29,SW,225,0.0,2.3,62,0.00,OVC,FEW,0.01,WeatherDisplay:10.37,2013-03-14 02:43:00,
2013-03-13 21:48:00,26.8,15.5,30.29,West,270,0.0,1.2,62,0.00,OVC,FEW,0.01,WeatherDisplay:10.37,2013-03-14 02:48:00,
2013-03-13 21:54:00,26.8,15.9,30.30,NW,315,0.0,1.2,63,0.00,OVC,FEW,0.01,WeatherDisplay:10.37,2013-03-14 02:54:00,
2013-03-13 21:59:00,26.8,16.2,30.30,NW,315,0.7,3.5,64,0.00,OVC,FEW,0.01,WeatherDisplay:10.37,2013-03-14 02:59:00,
2013-03-13 22:05:00,26.8,16.2,30.30,West,270,0.7,1.6,64,0.00,OVC,FEW,0.01,WeatherDisplay:10.37,2013-03-14 03:05:00,
2013-03-13 22:11:00,26.8,16.2,30.30,West,270,0.0,2.3,64,0.00,OVC,FEW,0.01,WeatherDisplay:10.37,2013-03-14 03:11:00,
2013-03-13 22:16:00,26.8,16.2,30.30,NW,315,0.0,2.3,64,0.00,OVC,FEW,0.01,WeatherDisplay:10.37,2013-03-14 03:16:00,
2013-03-13 22:22:00,26.6,16.1,30.30,North,0,0.0,1.2,64,0.00,OVC,FEW,0.01,WeatherDisplay:10.37,2013-03-14 03:22:00,
2013-03-13 22:27:00,26.4,15.9,30.30,North,0,0.0,3.5,64,0.00,OVC,FEW,0.01,WeatherDisplay:10.37,2013-03-14 03:27:00,
2013-03-13 22:33:00,26.4,16.2,30.30,North,0,0.0,3.5,65,0.00,OVC,FEW,0.01,WeatherDisplay:10.37,2013-03-14 03:33:00,
2013-03-13 22:39:00,26.2,15.7,30.30,West,270,0.0,1.2,64,0.00,OVC,FEW,0.01,WeatherDisplay:10.37,2013-03-14 03:39:00,
2013-03-13 22:44:00,26.1,15.9,30.30,NW,315,0.0,2.2,65,0.00,OVC,FEW,0.01,WeatherDisplay:10.37,2013-03-14 03:44:00,
2013-03-13 22:50:00,26.1,15.9,30.30,West,270,0.0,0.0,65,0.00,OVC,FEW,0.01,WeatherDisplay:10.37,2013-03-14 03:50:00,
2013-03-13 22:55:00,26.1,15.9,30.30,NW,315,0.0,0.0,65,0.00,OVC,FEW,0.01,WeatherDisplay:10.37,2013-03-14 03:55:00,
2013-03-13 23:00:00,26.1,15.9,30.30,NW,315,0.0,0.0,65,0.00,OVC,FEW,0.01,WeatherDisplay:10.37,2013-03-14 04:00:00,
2013-03-13 23:02:00,26.1,15.9,30.30,NW,315,0.0,0.0,65,0.00,OVC,FEW,0.01,WeatherDisplay:10.37,2013-03-14 04:02:00,
2013-03-13 23:04:00,26.1,15.9,30.30,NW,315,0.0,0.0,65,0.00,OVC,FEW,0.01,WeatherDisplay:10.37,2013-03-14 04:04:00,
2013-03-13 23:07:00,25.9,16.1,30.30,West,270,0.0,0.0,66,0.00,OVC,FEW,0.01,WeatherDisplay:10.37,2013-03-14 04:07:00,
2013-03-13 23:12:00,25.7,15.9,30.30,West,270,0.0,0.0,66,0.00,OVC,FEW,0.01,WeatherDisplay:10.37,2013-03-14 04:12:00,
2013-03-13 23:18:00,25.7,15.9,30.30,NW,315,0.0,0.0,66,0.00,OVC,FEW,0.01,WeatherDisplay:10.37,2013-03-14 04:18:00,
2013-03-13 23:23:00,25.7,15.9,30.30,NW,315,0.0,0.0,66,0.00,OVC,FEW,0.01,WeatherDisplay:10.37,2013-03-14 04:23:00,
2013-03-13 23:29:00,25.5,15.7,30.30,West,270,0.0,0.0,66,0.00,OVC,FEW,0.01,WeatherDisplay:10.37,2013-03-14 04:29:00,
2013-03-13 23:35:00,25.2,15.4,30.30,West,270,0.0,0.0,66,0.00,OVC,FEW,0.01,WeatherDisplay:10.37,2013-03-14 04:35:00,
2013-03-13 23:40:00,25.0,15.2,30.29,West,270,0.0,0.0,66,0.00,OVC,FEW,0.01,WeatherDisplay:10.37,2013-03-14 04:40:00,
2013-03-13 23:46:00,24.8,15.4,30.30,West,270,0.0,0.0,67,0.00,OVC,FEW,0.01,WeatherDisplay:10.37,2013-03-14 04:46:00,
2013-03-13 23:51:00,24.6,15.6,30.30,West,270,0.0,0.0,68,0.00,OVC,FEW,0.01,WeatherDisplay:10.37,2013-03-14 04:51:00,
2013-03-13 23:57:00,24.6,15.6,30.30,West,270,0.0,0.0,68,0.00,OVC,FEW,0.01,WeatherDisplay:10.37,2013-03-14 04:57:00,